Time;durP1;ratioP1;P1;durP2;ratioP2;P2;SDS_P1;SDS_P2;PMS_P1;PMS_P2;Temp;Humidity;BMP_temperature;BMP_pressure;BME280_temperature;BME280_humidity;BME280_pressure;Samples;Min_cycle;Max_cycle;Signal;HPM_P1;HPM_P2
2022/02/26 00:00:18;;;;;;;3.40;2.10;;;0.90;99.90;;;;;;5074354;28;20252;-76
2022/02/26 00:02:43;;;;;;;4.03;1.73;;;0.90;99.90;;;;;;5074505;28;20639;-76
2022/02/26 00:05:10;;;;;;;3.53;1.90;;;0.90;99.90;;;;;;5074174;28;20192;-77
2022/02/26 00:07:35;;;;;;;4.53;2.17;;;0.90;99.90;;;;;;5074253;28;20172;-76
2022/02/26 00:10:02;;;;;;;10.00;2.27;;;0.90;99.90;;;;;;5074128;28;20431;-76
2022/02/26 00:12:28;;;;;;;4.70;2.23;;;1.00;99.90;;;;;;5074230;28;20625;-77
2022/02/26 00:14:53;;;;;;;2.67;1.30;;;0.90;99.90;;;;;;5074077;28;20411;-76
2022/02/26 00:17:19;;;;;;;6.83;2.17;;;1.00;99.90;;;;;;5074225;28;20169;-76
2022/02/26 00:19:45;;;;;;;4.93;2.10;;;1.00;99.90;;;;;;5074186;28;20627;-77
2022/02/26 00:22:10;;;;;;;7.83;2.30;;;1.00;99.90;;;;;;5074289;28;20319;-77
2022/02/26 00:24:36;;;;;;;2.33;1.70;;;1.00;99.90;;;;;;5074142;28;20650;-76
2022/02/26 00:27:02;;;;;;;5.30;2.27;;;1.00;99.90;;;;;;5072937;28;20219;-76
2022/02/26 00:29:28;;;;;;;4.77;2.37;;;0.90;99.90;;;;;;5081953;28;20176;-77
2022/02/26 00:31:54;;;;;;;8.50;1.83;;;1.30;99.90;;;;;;5079251;28;20295;-77
2022/02/26 00:34:20;;;;;;;5.03;2.23;;;0.90;99.90;;;;;;5077002;28;20173;-77
2022/02/26 00:36:46;;;;;;;4.27;1.93;;;0.80;99.90;;;;;;5076868;28;20188;-76
2022/02/26 00:39:11;;;;;;;4.17;1.70;;;0.80;99.90;;;;;;5075380;28;20403;-76
2022/02/26 00:41:37;;;;;;;7.30;2.00;;;0.70;99.90;;;;;;5091018;28;20204;-76
2022/02/26 00:44:03;;;;;;;5.83;2.10;;;0.70;99.90;;;;;;5073968;28;20207;-76
2022/02/26 00:46:29;;;;;;;6.70;2.17;;;0.60;99.90;;;;;;5073852;28;20181;-76
2022/02/26 00:51:38;;;;;;;3.40;1.60;;;1.30;99.90;;;;;;5073784;28;20416;-76
2022/02/26 00:54:04;;;;;;;5.60;1.40;;;0.50;99.90;;;;;;5089342;28;20455;-76
2022/02/26 00:56:30;;;;;;;8.63;1.80;;;0.50;99.90;;;;;;5072669;28;20589;-76
2022/02/26 00:58:56;;;;;;;2.53;1.63;;;0.40;99.90;;;;;;5073828;28;20173;-76
2022/02/26 01:01:22;;;;;;;1.87;1.47;;;0.30;99.90;;;;;;5073631;28;20263;-76
2022/02/26 01:03:48;;;;;;;4.60;2.27;;;0.20;99.90;;;;;;5073842;28;20407;-76
2022/02/26 01:06:13;;;;;;;4.50;2.00;;;0.20;99.90;;;;;;5073464;28;20441;-76
2022/02/26 01:08:39;;;;;;;5.57;2.00;;;0.20;99.90;;;;;;5073809;28;20169;-76
2022/02/26 01:11:05;;;;;;;6.80;1.90;;;0.10;99.90;;;;;;5073606;28;20666;-76
2022/02/26 01:13:30;;;;;;;3.00;1.60;;;0.10;99.90;;;;;;5073808;28;20165;-76
2022/02/26 01:15:56;;;;;;;5.57;2.13;;;0.10;99.90;;;;;;5073816;28;20188;-76
2022/02/26 01:18:22;;;;;;;6.40;2.90;;;0.10;99.90;;;;;;5073638;28;20165;-76
2022/02/26 01:20:48;;;;;;;8.33;3.13;;;0.00;99.90;;;;;;5073669;28;20196;-76
2022/02/26 01:23:14;;;;;;;6.53;3.20;;;-0.10;99.90;;;;;;5073422;28;20407;-76
2022/02/26 01:25:40;;;;;;;12.50;4.30;;;-0.10;99.90;;;;;;5073399;28;20180;-76
2022/02/26 01:28:06;;;;;;;11.13;4.43;;;;;;;;;;5073606;28;20175;-76
2022/02/26 01:30:32;;;;;;;12.80;5.40;;;;;;;;;;5072080;28;20199;-76
2022/02/26 01:32:57;;;;;;;5.67;3.20;;;-0.20;99.90;;;;;;5072333;28;20414;-76
2022/02/26 01:35:23;;;;;;;7.00;3.00;;;-0.10;99.90;;;;;;5072272;28;20773;-76
2022/02/26 01:37:49;;;;;;;3.47;2.50;;;0.00;99.90;;;;;;5073676;28;20661;-77
2022/02/26 01:40:15;;;;;;;5.17;2.00;;;0.20;99.90;;;;;;5073283;28;20189;-76
2022/02/26 01:42:40;;;;;;;4.77;2.13;;;0.40;99.90;;;;;;5073420;28;20195;-76
2022/02/26 01:45:17;;;;;;;3.67;2.33;;;0.40;99.90;;;;;;5073291;28;20169;-76
2022/02/26 01:47:43;;;;;;;3.57;1.67;;;0.10;99.90;;;;;;5072241;28;20180;-76
2022/02/26 01:50:11;;;;;;;5.73;2.60;;;0.20;99.90;;;;;;5072306;28;20454;-76
2022/02/26 01:52:37;;;;;;;5.73;2.00;;;0.20;99.90;;;;;;5073818;28;20192;-76
2022/02/26 01:55:04;;;;;;;6.07;1.77;;;0.10;99.90;;;;;;5073347;28;20460;-76
2022/02/26 01:57:30;;;;;;;5.83;2.70;;;0.20;99.90;;;;;;5078405;28;20403;-76
2022/02/26 01:59:55;;;;;;;3.67;2.20;;;0.10;99.90;;;;;;5073109;28;20477;-76
2022/02/26 02:02:21;;;;;;;4.57;2.30;;;0.10;99.90;;;;;;5073801;28;20616;-76
2022/02/26 02:04:47;;;;;;;5.70;2.20;;;0.00;99.90;;;;;;5072974;28;20180;-76
2022/02/26 02:07:13;;;;;;;8.90;2.37;;;-0.10;99.90;;;;;;5071932;28;20646;-76
2022/02/26 02:09:38;;;;;;;4.43;2.10;;;-0.20;99.90;;;;;;5071841;28;20185;-76
2022/02/26 02:12:05;;;;;;;2.67;2.00;;;-0.10;99.90;;;;;;5073004;28;20197;-76
2022/02/26 02:14:31;;;;;;;3.67;2.30;;;;;;;;;;5071661;28;20177;-77
2022/02/26 02:16:57;;;;;;;7.40;3.40;;;-0.20;99.90;;;;;;5073116;28;20403;-77
2022/02/26 02:19:25;;;;;;;7.53;2.80;;;-0.20;99.90;;;;;;5073073;28;20410;-76
2022/02/26 02:21:50;;;;;;;7.87;3.30;;;-0.20;99.90;;;;;;5075305;28;20193;-76
2022/02/26 02:24:16;;;;;;;8.27;3.10;;;-0.30;99.90;;;;;;5076851;28;20895;-76
2022/02/26 02:26:44;;;;;;;12.33;3.13;;;-0.30;99.90;;;;;;5075280;28;20646;-76
2022/02/26 02:29:10;;;;;;;4.37;2.77;;;-0.30;99.90;;;;;;5076690;28;20197;-76
2022/02/26 02:31:35;;;;;;;7.70;3.00;;;-0.30;99.90;;;;;;5091850;28;20544;-76
2022/02/26 02:34:01;;;;;;;4.53;2.53;;;-0.20;99.90;;;;;;5076654;28;20153;-76
2022/02/26 02:36:27;;;;;;;7.13;2.93;;;-0.20;99.90;;;;;;5076270;28;20689;-76
2022/02/26 02:38:53;;;;;;;6.37;3.33;;;-0.10;99.90;;;;;;5076815;28;20169;-76
2022/02/26 02:41:20;;;;;;;8.20;3.03;;;0.00;99.90;;;;;;5076334;28;20500;-76
2022/02/26 02:43:46;;;;;;;6.13;3.10;;;0.00;99.90;;;;;;5076197;28;20537;-77
2022/02/26 02:46:12;;;;;;;6.63;3.03;;;0.10;99.90;;;;;;5076058;28;20403;-76
2022/02/26 02:48:38;;;;;;;6.03;3.00;;;0.10;99.90;;;;;;5076228;28;20184;-76
2022/02/26 02:51:05;;;;;;;10.10;3.47;;;0.10;99.90;;;;;;5075996;28;20228;-77
2022/02/26 02:53:31;;;;;;;6.97;2.60;;;0.10;99.90;;;;;;5076102;28;20614;-77
2022/02/26 02:55:57;;;;;;;5.83;2.60;;;0.60;99.90;;;;;;5076024;28;20419;-77
2022/02/26 02:58:28;;;;;;;4.73;2.70;;;0.20;99.90;;;;;;5076181;28;20407;-76
2022/02/26 03:00:55;;;;;;;6.13;2.53;;;0.20;99.90;;;;;;5074564;28;20331;-77
2022/02/26 03:03:20;;;;;;;5.33;3.13;;;0.20;99.90;;;;;;5074596;28;20423;-76
2022/02/26 03:05:46;;;;;;;4.63;3.10;;;0.20;99.90;;;;;;5075497;28;20442;-76
2022/02/26 03:08:12;;;;;;;3.87;2.50;;;0.50;99.90;;;;;;5075170;28;20231;-76
2022/02/26 03:10:38;;;;;;;4.73;2.57;;;0.20;99.90;;;;;;5075731;28;20227;-76
2022/02/26 03:13:04;;;;;;;4.97;2.60;;;0.30;99.90;;;;;;5075755;28;20286;-76
2022/02/26 03:15:30;;;;;;;6.70;2.70;;;0.30;99.90;;;;;;5075391;28;20432;-76
2022/02/26 03:17:56;;;;;;;9.13;2.87;;;0.20;99.90;;;;;;5075991;28;20187;-76
2022/02/26 03:20:22;;;;;;;4.43;3.07;;;0.20;99.90;;;;;;5075457;28;20908;-77
2022/02/26 03:22:48;;;;;;;5.10;2.77;;;0.20;99.90;;;;;;5075904;28;20181;-76
2022/02/26 03:25:15;;;;;;;5.67;2.47;;;0.30;99.90;;;;;;5075437;28;20730;-76
2022/02/26 03:27:41;;;;;;;5.53;2.87;;;0.30;99.90;;;;;;5075384;28;20439;-76
2022/02/26 03:30:09;;;;;;;5.50;2.83;;;0.30;99.90;;;;;;5075543;28;20431;-76
2022/02/26 03:32:35;;;;;;;5.57;3.13;;;0.30;99.90;;;;;;5074842;28;20504;-76
2022/02/26 03:35:02;;;;;;;6.80;3.17;;;0.30;99.90;;;;;;5075285;28;20788;-76
2022/02/26 03:37:28;;;;;;;7.27;2.60;;;0.30;99.90;;;;;;5075278;28;20403;-76
2022/02/26 03:39:55;;;;;;;3.93;2.17;;;0.30;99.90;;;;;;5075232;28;20559;-77
2022/02/26 03:42:21;;;;;;;7.67;2.90;;;;;;;;;;5075062;28;20173;-76
2022/02/26 03:44:48;;;;;;;5.70;2.80;;;;;;;;;;5074882;28;20406;-76
2022/02/26 03:47:16;;;;;;;6.93;2.30;;;0.30;99.90;;;;;;5075017;28;20452;-76
2022/02/26 03:49:42;;;;;;;7.37;2.67;;;0.20;99.90;;;;;;5074864;28;20492;-76
2022/02/26 03:52:08;;;;;;;9.17;3.10;;;0.20;99.90;;;;;;5074875;28;20457;-76
2022/02/26 03:54:33;;;;;;;8.73;2.87;;;0.20;99.90;;;;;;5074828;28;20399;-76
2022/02/26 03:56:59;;;;;;;6.97;2.90;;;0.20;99.90;;;;;;5074638;28;20234;-76
2022/02/26 03:59:25;;;;;;;3.43;2.70;;;;;;;;;;5074593;28;20205;-76
2022/02/26 04:01:52;;;;;;;4.87;2.83;;;;;;;;;;5074649;28;20344;-76
2022/02/26 04:04:18;;;;;;;5.57;2.93;;;0.40;99.90;;;;;;5074835;28;20800;-76
2022/02/26 04:06:44;;;;;;;6.33;2.47;;;0.30;99.90;;;;;;5078881;28;20427;-76
2022/02/26 04:09:09;;;;;;;7.47;3.80;;;0.30;99.90;;;;;;5074729;28;20181;-76
2022/02/26 04:11:35;;;;;;;12.23;3.50;;;0.20;99.90;;;;;;5074413;28;20201;-76
2022/02/26 04:14:01;;;;;;;8.27;3.63;;;0.30;99.90;;;;;;5074864;28;20181;-76
2022/02/26 04:16:27;;;;;;;6.20;3.50;;;0.30;99.90;;;;;;5074471;28;20669;-76
2022/02/26 04:18:52;;;;;;;6.07;3.30;;;0.30;99.90;;;;;;5074839;28;20193;-76
2022/02/26 04:21:18;;;;;;;4.17;3.13;;;0.30;99.90;;;;;;5074346;28;20204;-76
2022/02/26 04:23:44;;;;;;;7.77;3.53;;;0.30;99.90;;;;;;5074429;28;20177;-76
2022/02/26 04:26:09;;;;;;;6.47;3.30;;;0.30;99.90;;;;;;5073074;28;20187;-77
2022/02/26 04:28:35;;;;;;;9.73;3.97;;;0.40;99.90;;;;;;5074451;28;20176;-76
2022/02/26 04:31:01;;;;;;;7.67;3.97;;;0.20;99.90;;;;;;5074091;28;20200;-76
2022/02/26 04:33:29;;;;;;;10.30;3.53;;;0.20;99.90;;;;;;5072965;28;20172;-76
2022/02/26 04:35:55;;;;;;;6.37;4.33;;;0.20;99.90;;;;;;5073990;28;20165;-76
2022/02/26 04:38:21;;;;;;;6.03;4.10;;;0.20;99.90;;;;;;5073992;28;20532;-76
2022/02/26 04:40:46;;;;;;;8.53;3.80;;;0.20;99.90;;;;;;5073919;28;20431;-76
2022/02/26 04:43:12;;;;;;;9.37;4.47;;;0.20;99.90;;;;;;5073507;28;20204;-76
2022/02/26 04:45:38;;;;;;;6.97;4.07;;;0.20;99.90;;;;;;5073813;28;20190;-76
2022/02/26 04:48:04;;;;;;;8.17;4.23;;;0.30;99.90;;;;;;5073910;28;20681;-76
2022/02/26 04:50:30;;;;;;;8.50;4.80;;;0.40;99.90;;;;;;5073812;28;20192;-76
2022/02/26 04:52:56;;;;;;;6.80;4.47;;;0.40;99.90;;;;;;5073999;28;20197;-76
2022/02/26 04:55:22;;;;;;;5.80;4.23;;;0.40;99.90;;;;;;5073804;28;20529;-76
2022/02/26 04:57:47;;;;;;;12.17;4.60;;;0.40;99.90;;;;;;5073813;28;20238;-76
2022/02/26 05:00:13;;;;;;;5.73;4.33;;;0.30;99.90;;;;;;5073861;28;20995;-77
2022/02/26 05:02:39;;;;;;;7.20;4.30;;;0.30;99.90;;;;;;5073867;28;20180;-76
2022/02/26 05:05:05;;;;;;;10.53;4.40;;;0.30;99.90;;;;;;5073642;28;20500;-76
2022/02/26 05:07:31;;;;;;;10.03;4.60;;;0.30;99.90;;;;;;5073729;28;20783;-76
2022/02/26 05:09:57;;;;;;;14.83;5.20;;;0.30;99.90;;;;;;5073910;28;20506;-76
2022/02/26 05:12:22;;;;;;;8.83;4.30;;;0.60;99.90;;;;;;5073786;28;20692;-76
2022/02/26 05:14:49;;;;;;;7.80;5.30;;;0.30;99.90;;;;;;5073931;28;20176;-76
2022/02/26 05:17:15;;;;;;;4.87;4.07;;;0.30;99.90;;;;;;5072392;28;20198;-76
2022/02/26 05:19:41;;;;;;;6.37;4.20;;;0.20;99.90;;;;;;5073571;28;20411;-76
2022/02/26 05:22:07;;;;;;;10.27;5.13;;;0.20;99.90;;;;;;5073963;28;20426;-76
2022/02/26 05:24:32;;;;;;;7.37;4.23;;;0.40;99.90;;;;;;5073464;28;20200;-76
2022/02/26 05:26:58;;;;;;;8.77;4.83;;;0.40;99.90;;;;;;5074063;28;20177;-76
2022/02/26 05:29:24;;;;;;;6.93;4.20;;;0.70;99.90;;;;;;5073984;28;20191;-76
2022/02/26 05:31:49;;;;;;;5.77;4.27;;;0.10;99.90;;;;;;5072042;28;20209;-76
2022/02/26 05:34:15;;;;;;;7.80;3.90;;;0.20;99.90;;;;;;5073372;28;20154;-76
2022/02/26 05:36:41;;;;;;;7.17;4.30;;;0.60;99.90;;;;;;5089044;28;20172;-76
2022/02/26 05:39:06;;;;;;;6.27;4.73;;;0.10;99.90;;;;;;5072066;28;20258;-76
2022/02/26 05:41:32;;;;;;;10.87;5.50;;;0.00;99.90;;;;;;5073337;28;20293;-76
2022/02/26 05:43:58;;;;;;;7.30;4.53;;;0.00;99.90;;;;;;5073218;28;20173;-77
2022/02/26 05:46:23;;;;;;;9.60;4.63;;;0.00;99.90;;;;;;5072374;28;20704;-76
2022/02/26 05:48:49;;;;;;;12.87;4.70;;;0.00;99.90;;;;;;5073411;28;20177;-76
2022/02/26 05:51:15;;;;;;;8.33;5.00;;;-0.10;99.90;;;;;;5073117;28;20211;-76
2022/02/26 05:53:41;;;;;;;9.60;5.77;;;0.00;99.90;;;;;;5073882;28;20671;-76
2022/02/26 05:56:08;;;;;;;8.57;4.67;;;0.00;99.90;;;;;;5073282;28;20411;-76
2022/02/26 05:58:34;;;;;;;6.73;4.70;;;0.00;99.90;;;;;;5077233;28;20418;-76
2022/02/26 06:00:59;;;;;;;8.97;5.23;;;0.00;99.90;;;;;;5077881;28;20481;-76
2022/02/26 06:03:25;;;;;;;8.77;4.97;;;0.00;99.90;;;;;;5092628;28;20418;-76
2022/02/26 06:05:51;;;;;;;8.83;5.13;;;0.00;99.90;;;;;;5076689;28;20287;-76
2022/02/26 06:08:17;;;;;;;12.67;5.43;;;0.00;99.90;;;;;;5076973;28;20208;-76
2022/02/26 06:10:43;;;;;;;7.67;5.47;;;0.00;99.90;;;;;;5077033;28;20279;-76
2022/02/26 06:13:08;;;;;;;13.73;4.97;;;-0.10;99.90;;;;;;5081201;28;20454;-77
2022/02/26 06:15:34;;;;;;;8.67;4.47;;;0.00;99.90;;;;;;5076658;28;20173;-76
2022/02/26 06:18:00;;;;;;;9.03;5.30;;;0.70;99.90;;;;;;5076971;28;20673;-77
2022/02/26 06:20:25;;;;;;;9.27;5.43;;;0.00;99.90;;;;;;5076814;28;20185;-76
2022/02/26 06:22:51;;;;;;;8.00;4.37;;;0.10;99.90;;;;;;5077297;28;20627;-76
2022/02/26 06:25:19;;;;;;;9.30;5.53;;;0.10;99.90;;;;;;5075508;28;20181;-76
2022/02/26 06:27:45;;;;;;;12.37;5.20;;;0.10;99.90;;;;;;5075389;28;20180;-76
2022/02/26 06:30:13;;;;;;;9.40;5.20;;;0.10;99.90;;;;;;5076476;28;20527;-76
2022/02/26 06:32:38;;;;;;;6.70;4.10;;;0.10;99.90;;;;;;5075098;28;20859;-76
2022/02/26 06:35:05;;;;;;;6.43;4.67;;;0.10;99.90;;;;;;5075057;28;20469;-76
2022/02/26 06:37:31;;;;;;;6.07;4.83;;;0.20;99.90;;;;;;5076334;28;20244;-76
2022/02/26 06:39:57;;;;;;;8.83;5.13;;;;;;;;;;5091866;28;20530;-76
2022/02/26 06:42:24;;;;;;;7.17;5.13;;;0.10;99.90;;;;;;5076227;28;20483;-76
2022/02/26 06:44:50;;;;;;;8.67;4.80;;;0.20;99.90;;;;;;5075987;28;20180;-76
2022/02/26 06:47:16;;;;;;;10.17;5.73;;;;;;;;;;5076464;28;20503;-76
2022/02/26 06:49:42;;;;;;;30.60;23.60;;;0.40;99.90;;;;;;5076024;28;20889;-76
2022/02/26 06:52:08;;;;;;;11.33;7.47;;;0.40;99.90;;;;;;5075996;28;20572;-76
2022/02/26 06:54:34;;;;;;;18.17;10.10;;;0.40;99.90;;;;;;5075939;28;20183;-76
2022/02/26 06:57:00;;;;;;;16.00;11.20;;;0.00;99.90;;;;;;5074914;28;20634;-76
2022/02/26 06:59:29;;;;;;;16.10;9.23;;;;;;;;;;5076079;28;20411;-77
2022/02/26 07:01:54;;;;;;;15.73;7.77;;;0.20;99.90;;;;;;5074719;28;20180;-76
2022/02/26 07:04:20;;;;;;;10.80;7.03;;;0.30;99.90;;;;;;5076223;28;20506;-77
2022/02/26 07:06:46;;;;;;;13.67;6.73;;;0.30;99.90;;;;;;5075435;28;20192;-76
2022/02/26 07:09:14;;;;;;;7.20;5.20;;;0.20;99.90;;;;;;5075773;28;20177;-76
2022/02/26 07:11:44;;;;;;;9.43;5.57;;;0.20;99.90;;;;;;5075526;28;20490;-76
2022/02/26 07:14:10;;;;;;;11.07;5.43;;;0.30;99.90;;;;;;5075901;28;20817;-76
2022/02/26 07:16:37;;;;;;;8.17;6.20;;;0.30;99.90;;;;;;5075556;28;20411;-76
2022/02/26 07:19:03;;;;;;;13.60;7.67;;;0.30;99.90;;;;;;5075575;28;20434;-76
2022/02/26 07:21:29;;;;;;;10.13;6.37;;;0.40;99.90;;;;;;5075354;28;20496;-76
2022/02/26 07:23:56;;;;;;;9.67;6.43;;;0.30;99.90;;;;;;5074205;28;20419;-76
2022/02/26 07:26:22;;;;;;;11.17;6.40;;;0.40;99.90;;;;;;5074135;28;20427;-76
2022/02/26 07:28:48;;;;;;;13.47;7.17;;;0.50;99.90;;;;;;5075377;28;20472;-76
2022/02/26 07:31:14;;;;;;;7.60;5.30;;;0.60;99.90;;;;;;5075308;28;20469;-76
2022/02/26 07:33:40;;;;;;;11.00;5.73;;;0.60;99.90;;;;;;5075368;28;20506;-76
2022/02/26 07:36:07;;;;;;;9.43;4.83;;;0.70;99.90;;;;;;5075485;28;20173;-76
2022/02/26 07:38:34;;;;;;;10.80;7.80;;;0.70;99.90;;;;;;5074053;28;20177;-76
2022/02/26 07:41:00;;;;;;;11.30;6.97;;;0.70;99.90;;;;;;5075213;28;20431;-76
2022/02/26 07:43:25;;;;;;;7.27;4.90;;;0.70;99.90;;;;;;5073973;28;20419;-76
2022/02/26 07:45:51;;;;;;;5.00;4.17;;;;;;;;;;5074917;28;20201;-77
2022/02/26 07:48:17;;;;;;;12.77;5.10;;;0.70;99.90;;;;;;5074147;28;20623;-76
2022/02/26 07:50:43;;;;;;;8.50;4.47;;;0.80;99.90;;;;;;5074845;28;20259;-77
2022/02/26 07:53:09;;;;;;;85.90;52.73;;;0.80;99.90;;;;;;5075012;28;20238;-77
2022/02/26 07:55:37;;;;;;;115.90;82.97;;;0.80;99.90;;;;;;5073383;28;20177;-77
2022/02/26 07:58:04;;;;;;;42.77;31.20;;;0.90;99.90;;;;;;5075570;28;20184;-77
2022/02/26 08:00:30;;;;;;;25.77;16.73;;;1.00;99.90;;;;;;5074994;28;20437;-77
2022/02/26 08:02:57;;;;;;;15.10;11.80;;;1.00;99.90;;;;;;5074692;28;20739;-77
2022/02/26 08:05:23;;;;;;;19.37;12.67;;;1.00;99.90;;;;;;5074496;28;20441;-77
2022/02/26 08:07:49;;;;;;;17.90;10.13;;;1.00;99.90;;;;;;5074680;28;20780;-77
2022/02/26 08:10:15;;;;;;;28.50;21.00;;;0.90;99.90;;;;;;5074546;28;20488;-77
2022/02/26 08:12:42;;;;;;;12.13;7.93;;;1.00;99.90;;;;;;5074501;28;20205;-77
2022/02/26 08:15:10;;;;;;;10.23;4.57;;;1.00;99.90;;;;;;5074735;28;20583;-77
2022/02/26 08:17:36;;;;;;;8.20;5.40;;;1.00;99.90;;;;;;5078604;28;20718;-77
2022/02/26 08:20:03;;;;;;;7.40;5.43;;;1.00;99.90;;;;;;5073873;28;20495;-77
2022/02/26 08:22:28;;;;;;;10.03;7.30;;;1.00;99.90;;;;;;5074687;28;20547;-77
2022/02/26 08:24:54;;;;;;;10.47;5.13;;;1.00;99.90;;;;;;5074070;28;20903;-77
2022/02/26 08:27:21;;;;;;;8.30;4.73;;;1.00;99.90;;;;;;5074841;28;20710;-79
2022/02/26 08:29:47;;;;;;;7.77;5.30;;;1.00;99.90;;;;;;5073178;28;20233;-77
2022/02/26 08:32:13;;;;;;;10.23;5.60;;;1.10;99.90;;;;;;5074649;28;20454;-77
2022/02/26 08:34:38;;;;;;;9.23;5.27;;;1.10;99.90;;;;;;5074526;28;20418;-78
2022/02/26 08:37:04;;;;;;;6.27;4.70;;;1.20;99.90;;;;;;5074805;28;20532;-77
2022/02/26 08:39:31;;;;;;;9.83;6.73;;;1.30;99.90;;;;;;5074552;28;20180;-78
2022/02/26 08:41:57;;;;;;;11.03;5.37;;;1.30;99.90;;;;;;5089719;28;20184;-79
2022/02/26 08:44:22;;;;;;;13.67;6.17;;;1.50;99.90;;;;;;5074480;28;20422;-78
2022/02/26 08:46:48;;;;;;;9.33;5.53;;;1.80;99.90;;;;;;5074557;28;20177;-79
2022/02/26 08:49:14;;;;;;;11.20;5.40;;;1.40;99.90;;;;;;5073171;28;20181;-78
2022/02/26 08:51:39;;;;;;;9.03;5.80;;;1.30;99.90;;;;;;5074441;28;20205;-77
2022/02/26 08:54:05;;;;;;;13.53;5.80;;;1.30;99.90;;;;;;5073691;28;20181;-78
2022/02/26 08:56:31;;;;;;;8.80;4.90;;;1.10;99.90;;;;;;5072747;28;20539;-77
2022/02/26 08:58:58;;;;;;;10.03;5.07;;;1.00;99.90;;;;;;5073846;28;20173;-77
2022/02/26 09:01:24;;;;;;;10.07;6.97;;;1.00;99.90;;;;;;5073642;28;20219;-77
2022/02/26 09:03:50;;;;;;;54.60;38.07;;;1.00;99.90;;;;;;5089134;28;20423;-77
2022/02/26 09:06:17;;;;;;;13.60;7.73;;;1.10;99.90;;;;;;5073520;28;20928;-77
2022/02/26 09:08:43;;;;;;;7.23;4.33;;;1.20;99.90;;;;;;5072365;28;20249;-77
2022/02/26 09:11:09;;;;;;;12.40;5.13;;;1.10;99.90;;;;;;5073825;28;20595;-77
2022/02/26 09:13:37;;;;;;;12.10;6.33;;;1.20;99.90;;;;;;5073596;28;20411;-77
2022/02/26 09:16:03;;;;;;;10.10;5.47;;;1.20;99.90;;;;;;5073327;28;20963;-77
2022/02/26 09:18:29;;;;;;;10.67;5.47;;;1.20;99.90;;;;;;5073934;28;20788;-78
2022/02/26 09:20:56;;;;;;;11.90;5.10;;;1.30;99.90;;;;;;5073925;28;20513;-77
2022/02/26 09:23:22;;;;;;;13.53;4.50;;;1.40;99.90;;;;;;5080237;28;20176;-79
2022/02/26 09:25:47;;;;;;;18.53;4.70;;;1.50;99.90;;;;;;5079450;28;20415;-77
2022/02/26 09:28:14;;;;;;;7.70;3.80;;;1.60;99.90;;;;;;5072362;28;20184;-77
2022/02/26 09:30:39;;;;;;;14.63;4.53;;;1.60;99.90;;;;;;5075675;28;20196;-77
2022/02/26 09:33:05;;;;;;;11.37;4.03;;;1.60;99.90;;;;;;5077439;28;20461;-77
2022/02/26 09:35:31;;;;;;;11.07;4.13;;;1.70;99.90;;;;;;5076152;28;20233;-77
2022/02/26 09:37:57;;;;;;;7.73;3.70;;;1.90;99.90;;;;;;5078450;28;20627;-79
2022/02/26 09:40:22;;;;;;;11.33;3.90;;;1.90;99.90;;;;;;5094955;28;20247;-78
2022/02/26 09:42:48;;;;;;;9.13;4.10;;;2.00;99.90;;;;;;5077519;28;20520;-78
2022/02/26 09:45:14;;;;;;;9.10;3.70;;;2.10;99.90;;;;;;5078372;28;20256;-78
2022/02/26 09:47:41;;;;;;;14.93;4.57;;;1.90;99.90;;;;;;5078186;28;20182;-78
2022/02/26 09:50:08;;;;;;;10.10;4.97;;;2.00;99.90;;;;;;5078085;28;20505;-78
2022/02/26 09:52:39;;;;;;;9.33;4.37;;;2.00;99.90;;;;;;5076359;28;20451;-77
2022/02/26 09:55:06;;;;;;;8.00;4.23;;;2.20;99.90;;;;;;5077276;28;20399;-77
2022/02/26 09:57:32;;;;;;;7.40;3.50;;;2.30;99.90;;;;;;5075952;28;20492;-77
2022/02/26 09:59:59;;;;;;;6.93;3.00;;;2.50;99.90;;;;;;5077338;28;20197;-77
2022/02/26 10:02:34;;;;;;;9.50;3.70;;;2.50;99.90;;;;;;5077333;28;20220;-77
2022/02/26 10:05:02;;;;;;;9.33;3.90;;;2.60;99.90;;;;;;5077048;28;20589;-78
2022/02/26 10:07:31;;;;;;;8.60;4.00;;;2.90;99.90;;;;;;5091160;28;20452;-78
2022/02/26 10:09:57;;;;;;;6.83;3.60;;;3.90;99.90;;;;;;5084456;28;20197;-78
2022/02/26 10:12:23;;;;;;;8.27;2.97;;;4.90;99.90;;;;;;5094032;28;20211;-78
2022/02/26 10:14:50;;;;;;;7.17;3.47;;;5.70;99.90;;;;;;5078773;28;20249;-78
2022/02/26 10:17:38;;;;;;;6.07;2.83;;;6.10;99.90;;;;;;5078991;28;20258;-78
2022/02/26 10:20:13;;;;;;;4.80;2.13;;;7.10;99.90;;;;;;5077942;28;20201;-77
2022/02/26 10:22:48;;;;;;;6.70;2.57;;;7.20;99.90;;;;;;5082311;28;20184;-78
2022/02/26 10:25:15;;;;;;;6.37;1.87;;;7.60;99.90;;;;;;5096757;28;20201;-78
2022/02/26 10:27:52;;;;;;;6.27;2.40;;;7.30;99.90;;;;;;5080253;28;20181;-78
2022/02/26 10:30:29;;;;;;;5.10;2.00;;;7.40;99.90;;;;;;5078290;28;20560;-78
2022/02/26 10:33:08;;;;;;;4.93;1.83;;;6.20;99.90;;;;;;5076018;28;20261;-78
2022/02/26 10:35:59;;;;;;;6.07;2.27;;;5.00;99.90;;;;;;5079056;28;20186;-78
2022/02/26 10:38:30;;;;;;;11.33;2.70;;;4.40;99.90;;;;;;5076530;28;20252;-78
2022/02/26 10:41:06;;;;;;;8.00;2.00;;;4.30;99.90;;;;;;5078050;28;20576;-78
2022/02/26 10:43:50;;;;;;;7.50;2.43;;;4.20;99.90;;;;;;5075945;28;20168;-78
2022/02/26 10:46:33;;;;;;;5.27;2.20;;;4.10;99.90;;;;;;5075977;28;20206;-78
2022/02/26 10:49:10;;;;;;;6.83;2.70;;;4.10;99.90;;;;;;5075338;28;20251;-78
2022/02/26 10:51:39;;;;;;;7.93;2.57;;;3.90;99.90;;;;;;5076297;28;20212;-78
2022/02/26 10:54:11;;;;;;;7.37;2.67;;;3.90;99.90;;;;;;5074959;28;20585;-78
2022/02/26 10:56:42;;;;;;;5.97;2.20;;;3.90;99.90;;;;;;5076299;28;20195;-78
2022/02/26 10:59:10;;;;;;;9.83;3.53;;;3.70;99.90;;;;;;5074908;28;20590;-78
2022/02/26 11:01:37;;;;;;;6.17;2.63;;;3.60;99.90;;;;;;5075972;28;20222;-78
2022/02/26 11:04:03;;;;;;;6.07;2.03;;;3.50;99.90;;;;;;5075705;28;20174;-77
2022/02/26 11:06:31;;;;;;;6.13;2.67;;;3.60;99.90;;;;;;5075718;28;20201;-77
2022/02/26 11:08:58;;;;;;;7.57;2.97;;;;;;;;;;5074780;28;20181;-77
2022/02/26 11:11:24;;;;;;;9.30;2.80;;;3.40;99.90;;;;;;5075528;28;20258;-77
2022/02/26 11:13:54;;;;;;;5.77;2.47;;;3.30;99.90;;;;;;5076247;28;20182;-77
2022/02/26 11:16:23;;;;;;;5.17;2.37;;;3.10;99.90;;;;;;5075967;28;20228;-78
2022/02/26 11:18:53;;;;;;;6.33;2.47;;;3.00;99.90;;;;;;5075951;28;20259;-78
2022/02/26 11:21:20;;;;;;;5.50;2.50;;;3.00;99.90;;;;;;5076219;28;20223;-77
2022/02/26 11:23:47;;;;;;;6.77;2.93;;;2.80;99.90;;;;;;5075480;28;20224;-77
2022/02/26 11:26:15;;;;;;;7.57;3.23;;;3.00;99.90;;;;;;5075191;28;20666;-77
2022/02/26 11:28:46;;;;;;;6.27;2.60;;;3.00;99.90;;;;;;5075230;28;20202;-78
2022/02/26 11:31:17;;;;;;;6.83;3.10;;;3.00;99.90;;;;;;5075389;28;20270;-77
2022/02/26 11:33:46;;;;;;;4.77;2.63;;;3.00;99.90;;;;;;5075625;28;20597;-77
2022/02/26 11:36:12;;;;;;;9.53;2.83;;;2.70;99.90;;;;;;5075009;28;20494;-77
2022/02/26 11:38:39;;;;;;;5.17;2.33;;;2.70;99.90;;;;;;5073786;28;20209;-77
2022/02/26 11:41:24;;;;;;;7.17;2.50;;;2.80;99.90;;;;;;5073822;28;20203;-77
2022/02/26 11:43:53;;;;;;;7.30;2.80;;;3.00;99.90;;;;;;5073825;28;20180;-77
2022/02/26 11:46:21;;;;;;;7.90;2.57;;;3.10;99.90;;;;;;5074996;28;20177;-77
2022/02/26 11:48:48;;;;;;;8.13;3.37;;;3.10;99.90;;;;;;5074873;28;20893;-78
2022/02/26 11:51:15;;;;;;;5.47;2.57;;;3.20;99.90;;;;;;5075060;28;20200;-78
2022/02/26 11:53:50;;;;;;;7.40;3.10;;;3.10;99.90;;;;;;5073659;28;20235;-78
2022/02/26 11:56:16;;;;;;;5.37;2.33;;;3.20;99.90;;;;;;5074717;28;20204;-78
2022/02/26 11:58:44;;;;;;;6.67;2.67;;;3.30;99.90;;;;;;5074926;28;20181;-77
2022/02/26 12:01:19;;;;;;;8.73;3.47;;;3.60;99.90;;;;;;5073644;28;20230;-77
2022/02/26 12:03:50;;;;;;;5.30;2.53;;;3.70;99.90;;;;;;5074820;28;20154;-78
2022/02/26 12:06:19;;;;;;;33.83;10.10;;;4.10;99.90;;;;;;5074393;28;20665;-77
2022/02/26 12:08:53;;;;;;;9.73;2.80;;;4.20;99.90;;;;;;5074723;28;20170;-77
2022/02/26 12:11:40;;;;;;;5.73;2.17;;;4.30;99.90;;;;;;5074565;28;20204;-77
2022/02/26 12:14:18;;;;;;;8.00;2.20;;;4.50;99.90;;;;;;5074720;28;20168;-77
2022/02/26 12:16:48;;;;;;;10.03;2.13;;;4.60;99.90;;;;;;5076856;28;20164;-77
2022/02/26 12:19:14;;;;;;;5.30;2.00;;;6.10;99.90;;;;;;5077401;28;20639;-79
2022/02/26 12:21:45;;;;;;;8.67;2.77;;;7.50;99.90;;;;;;5075885;28;20198;-78
2022/02/26 12:24:14;;;;;;;6.37;2.23;;;7.90;99.30;;;;;;5074753;28;20224;-78
2022/02/26 12:26:41;;;;;;;6.17;3.00;;;8.70;97.20;;;;;;5074749;28;20184;-78
2022/02/26 12:29:07;;;;;;;11.17;5.03;;;9.40;94.50;;;;;;5076284;28;20254;-79
2022/02/26 12:31:41;;;;;;;9.93;4.77;;;10.10;90.90;;;;;;5077158;28;20590;-78
2022/02/26 12:34:12;;;;;;;6.00;1.77;;;10.90;86.70;;;;;;5077558;28;20173;-79
2022/02/26 12:37:12;;;;;;;4.27;1.50;;;10.80;85.20;;;;;;5077157;28;20216;-79
2022/02/26 12:39:43;;;;;;;4.73;1.87;;;9.30;86.10;;;;;;5075573;28;20203;-79
2022/02/26 12:42:09;;;;;;;5.90;1.47;;;8.00;86.40;;;;;;5077873;28;20165;-79
2022/02/26 12:44:40;;;;;;;3.30;1.33;;;6.60;87.60;;;;;;5077712;28;20255;-79
2022/02/26 12:47:07;;;;;;;3.70;1.13;;;5.40;91.60;;;;;;5075429;28;20176;-79
2022/02/26 12:49:34;;;;;;;5.10;1.60;;;5.00;92.60;;;;;;5075458;28;20173;-78
2022/02/26 12:52:00;;;;;;;4.97;1.33;;;4.80;93.20;;;;;;5075490;28;20204;-78
2022/02/26 12:54:34;;;;;;;2.50;1.00;;;4.90;94.10;;;;;;5075060;28;20528;-78
2022/02/26 12:57:00;;;;;;;8.57;2.20;;;6.10;93.60;;;;;;5074102;28;20313;-78
2022/02/26 12:59:29;;;;;;;3.87;1.13;;;6.70;89.80;;;;;;5075266;28;20252;-78